Hadley, United Kingdom
Current Conditions -  °F | °C
As of 3:50 PM on Thursday 18 Dec 2014 (Local Time) from EGOS Reporting Station
Overcast Overcast  
Wind Chill: 13°   Ceiling: 1600
Heat Index: 13°   Visibility: 6mi
Dew Point: 10°   Wind: 17mph
Humidity: 82%   Direction: 230°SW
Pressure: 29.65"   Gusts: 31mph
Location:  52.7°N, 2.48°W
Report Text: EGOS 181550Z 23015G27KT 9999 FEW012 OVC016 13/10 Q1004 WHT TEMPO 6000 -DZ WHT
Loading
Personal Weather Stations






























Interactive Weather Map New forecast layout! Learn more

10-Day Weather Forecast

Advertisements
Track Severe Weather on mobile